createdAt,value
2019-01-26T00:00:50.322Z,21.14
2019-01-26T00:01:50.222Z,21.04
2019-01-26T00:02:50.174Z,21.33
2019-01-26T00:03:50.122Z,21.33
2019-01-26T00:04:50.072Z,21.33
2019-01-26T00:05:50.021Z,21.04
2019-01-26T00:06:49.972Z,21.04
2019-01-26T00:07:49.927Z,20.94
2019-01-26T00:08:49.872Z,21.14
2019-01-26T00:09:49.823Z,21.14
2019-01-26T00:10:49.772Z,21.33
2019-01-26T00:11:49.743Z,20.94
2019-01-26T00:12:49.673Z,21.04
2019-01-26T00:13:49.624Z,21.04
2019-01-26T00:14:49.572Z,21.14
2019-01-26T00:15:49.522Z,21.23
2019-01-26T00:16:49.476Z,21.33
2019-01-26T00:17:49.425Z,21.04
2019-01-26T00:18:49.376Z,21.04
2019-01-26T00:19:49.323Z,21.14
2019-01-26T00:20:49.272Z,21.33
2019-01-26T00:21:49.223Z,21.04
2019-01-26T00:22:49.173Z,21.14
2019-01-26T00:23:49.123Z,21.42
2019-01-26T00:24:49.072Z,21.04
2019-01-26T00:25:49.024Z,21.42
2019-01-26T00:26:48.973Z,21.42
2019-01-26T00:27:48.923Z,21.04
2019-01-26T00:28:48.873Z,21.23
2019-01-26T00:29:48.924Z,20.75
2019-01-26T00:30:48.773Z,20.94
2019-01-26T00:31:48.726Z,20.85
2019-01-26T00:32:48.674Z,21.04
2019-01-26T00:33:48.674Z,20.75
2019-01-26T00:34:48.624Z,21.04
2019-01-26T00:35:48.523Z,21.04
2019-01-26T00:36:48.474Z,21.04
2019-01-26T00:37:48.424Z,20.85
2019-01-26T00:38:48.374Z,21.04
2019-01-26T00:39:48.330Z,20.75
2019-01-26T00:40:48.274Z,20.85
2019-01-26T00:41:48.224Z,20.94
2019-01-26T00:42:48.174Z,21.23
2019-01-26T00:43:48.123Z,20.85
2019-01-26T00:44:48.074Z,20.47
2019-01-26T00:45:48.024Z,20.94
2019-01-26T00:46:47.973Z,20.94
2019-01-26T00:47:48.240Z,21.04
2019-01-26T00:48:47.874Z,20.94
2019-01-26T00:49:47.824Z,20.94
2019-01-26T00:50:47.782Z,20.94
2019-01-26T00:51:47.724Z,20.94
2019-01-26T00:52:47.674Z,20.75
2019-01-26T00:53:47.624Z,20.85
2019-01-26T00:54:47.573Z,20.65
2019-01-26T00:55:47.523Z,20.47
2019-01-26T00:56:47.474Z,20.85
2019-01-26T00:57:47.424Z,20.94
2019-01-26T00:58:47.373Z,20.85
2019-01-26T00:59:47.323Z,20.94
2019-01-26T01:00:47.302Z,20.75
2019-01-26T01:01:47.224Z,20.65
2019-01-26T01:02:47.175Z,20.75
2019-01-26T01:03:47.123Z,20.27
2019-01-26T01:04:47.074Z,20.47
2019-01-26T01:05:47.045Z,20.85
2019-01-26T01:06:46.973Z,20.27
2019-01-26T01:07:46.943Z,20.94
2019-01-26T01:08:46.873Z,20.47
2019-01-26T01:09:46.853Z,20.85
2019-01-26T01:10:46.772Z,20.56
2019-01-26T01:11:46.723Z,20.85
2019-01-26T01:12:46.678Z,20.65
2019-01-26T01:13:46.643Z,20.47
2019-01-26T01:14:46.574Z,20.56
2019-01-26T01:15:46.522Z,20.85
2019-01-26T01:16:46.473Z,20.85
2019-01-26T01:17:46.421Z,20.65
2019-01-26T01:18:46.398Z,20.85
2019-01-26T01:19:46.321Z,20.75
2019-01-26T01:20:46.287Z,20.75
2019-01-26T01:21:46.269Z,20.65
2019-01-26T01:22:46.181Z,20.47
2019-01-26T01:23:46.198Z,20.37
2019-01-26T01:24:46.073Z,20.47
2019-01-26T01:25:46.023Z,20.56
2019-01-26T01:26:45.972Z,20.75
2019-01-26T01:27:45.921Z,20.65
2019-01-26T01:28:45.872Z,20.75
2019-01-26T01:29:45.824Z,20.75
2019-01-26T01:30:45.772Z,20.94
2019-01-26T01:31:45.725Z,20.75
2019-01-26T01:32:45.672Z,20.65
2019-01-26T01:33:45.622Z,20.75
2019-01-26T01:34:45.640Z,20.85
2019-01-26T01:35:45.573Z,20.27
2019-01-26T01:36:45.472Z,20.75
2019-01-26T01:37:45.422Z,20.75
2019-01-26T01:38:45.372Z,20.75
2019-01-26T01:39:45.324Z,20.85
2019-01-26T01:40:45.272Z,20.65
2019-01-26T01:41:45.222Z,20.75
2019-01-26T01:42:45.171Z,20.27
2019-01-26T01:43:45.122Z,20.27
2019-01-26T01:44:45.071Z,20.65
2019-01-26T01:45:45.022Z,20.56
2019-01-26T01:46:44.974Z,20.85
2019-01-26T01:47:44.971Z,20.37
2019-01-26T01:48:44.873Z,20.47
2019-01-26T01:49:44.822Z,20.37
2019-01-26T01:50:44.772Z,20.47
2019-01-26T01:51:44.722Z,20.85
2019-01-26T01:52:44.672Z,20.65
2019-01-26T01:53:44.621Z,20.75
2019-01-26T01:54:44.575Z,20.65
2019-01-26T01:55:44.839Z,20.75
2019-01-26T01:56:44.472Z,20.47
2019-01-26T01:57:44.422Z,20.85
2019-01-26T01:58:44.371Z,20.37
2019-01-26T01:59:44.321Z,20.85
2019-01-26T02:00:44.271Z,20.47
2019-01-26T02:01:44.222Z,20.65
2019-01-26T02:02:44.171Z,20.56
2019-01-26T02:03:44.123Z,20.65
2019-01-26T02:04:44.071Z,20.85
2019-01-26T02:05:44.021Z,20.75
2019-01-26T02:06:43.970Z,20.56
2019-01-26T02:07:43.921Z,20.56
2019-01-26T02:08:43.871Z,20.47
2019-01-26T02:09:43.821Z,20.65
2019-01-26T02:10:43.771Z,20.65
2019-01-26T02:11:43.723Z,20.37
2019-01-26T02:12:43.671Z,20.75
2019-01-26T02:13:43.621Z,20.65
2019-01-26T02:14:43.570Z,20.85
2019-01-26T02:15:43.522Z,20.75
2019-01-26T02:16:49.931Z,20.65
2019-01-26T02:17:43.421Z,20.65
2019-01-26T02:18:43.370Z,20.75
2019-01-26T02:19:43.320Z,20.65
2019-01-26T02:20:43.271Z,20.75
2019-01-26T02:21:43.221Z,20.85
2019-01-26T02:22:43.169Z,20.75
2019-01-26T02:23:43.122Z,20.65
2019-01-26T02:24:43.070Z,20.75
2019-01-26T02:25:43.021Z,20.65
2019-01-26T02:26:42.971Z,20.85
2019-01-26T02:27:42.920Z,20.85
2019-01-26T02:28:42.871Z,20.75
2019-01-26T02:29:42.820Z,20.65
2019-01-26T02:30:42.769Z,20.75
2019-01-26T02:31:42.721Z,20.75
2019-01-26T02:32:42.670Z,20.56
2019-01-26T02:33:42.619Z,20.75
2019-01-26T02:34:42.569Z,20.56
2019-01-26T02:35:42.619Z,20.75
2019-01-26T02:36:42.471Z,20.85
2019-01-26T02:37:42.421Z,20.94
2019-01-26T02:38:42.371Z,20.56
2019-01-26T02:39:42.319Z,20.56
2019-01-26T02:40:42.269Z,20.65
2019-01-26T02:41:42.221Z,20.65
2019-01-26T02:42:42.178Z,20.65
2019-01-26T02:43:42.119Z,20.37
2019-01-26T02:44:42.069Z,20.65
2019-01-26T02:45:42.019Z,20.56
2019-01-26T02:46:41.984Z,20.65
2019-01-26T02:47:41.918Z,20.37
2019-01-26T02:48:41.869Z,20.85
2019-01-26T02:49:41.819Z,20.56
2019-01-26T02:50:41.768Z,20.56
2019-01-26T02:51:41.719Z,20.65
2019-01-26T02:52:41.676Z,20.85
2019-01-26T02:53:41.619Z,20.85
2019-01-26T02:54:41.573Z,20.75
2019-01-26T02:55:41.517Z,20.56
2019-01-26T02:56:41.468Z,20.47
2019-01-26T02:57:41.417Z,20.56
2019-01-26T02:58:41.370Z,20.47
2019-01-26T02:59:41.319Z,20.47
2019-01-26T03:00:41.269Z,20.94
2019-01-26T03:01:41.219Z,20.85
2019-01-26T03:02:41.168Z,20.65
2019-01-26T03:03:41.117Z,20.37
2019-01-26T03:04:41.068Z,20.75
2019-01-26T03:05:41.118Z,20.65
2019-01-26T03:06:40.967Z,20.94
2019-01-26T03:07:40.917Z,20.75
2019-01-26T03:08:40.867Z,20.85
2019-01-26T03:09:40.819Z,20.56
2019-01-26T03:10:40.766Z,20.65
2019-01-26T03:11:40.718Z,20.85
2019-01-26T03:12:40.668Z,20.75
2019-01-26T03:13:40.617Z,20.56
2019-01-26T03:14:40.629Z,20.85
2019-01-26T03:15:41.621Z,20.47
2019-01-26T03:16:40.473Z,20.75
2019-01-26T03:17:40.418Z,20.65
2019-01-26T03:18:40.367Z,20.47
2019-01-26T03:19:40.323Z,20.85
2019-01-26T03:20:40.266Z,20.85
2019-01-26T03:21:40.217Z,20.56
2019-01-26T03:22:40.166Z,20.65
2019-01-26T03:23:40.116Z,20.75
2019-01-26T03:24:40.076Z,20.65
2019-01-26T03:25:40.016Z,20.94
2019-01-26T03:26:39.967Z,20.65
2019-01-26T03:27:39.919Z,20.85
2019-01-26T03:28:39.866Z,20.65
2019-01-26T03:29:39.815Z,20.37
2019-01-26T03:30:39.767Z,20.47
2019-01-26T03:31:39.717Z,20.65
2019-01-26T03:32:39.671Z,20.85
2019-01-26T03:33:39.616Z,20.94
2019-01-26T03:34:39.566Z,20.47
2019-01-26T03:35:39.515Z,20.85
2019-01-26T03:36:39.466Z,20.85
2019-01-26T03:37:39.424Z,20.94
2019-01-26T03:38:39.371Z,20.47
2019-01-26T03:39:39.343Z,20.75
2019-01-26T03:40:39.265Z,20.75
2019-01-26T03:41:39.215Z,20.94
2019-01-26T03:42:39.167Z,20.85
2019-01-26T03:43:39.127Z,20.65
2019-01-26T03:44:39.064Z,20.65
2019-01-26T03:45:39.016Z,20.85
2019-01-26T03:46:38.964Z,20.56
2019-01-26T03:47:38.915Z,20.56
2019-01-26T03:48:38.866Z,20.85
2019-01-26T03:49:38.815Z,20.65
2019-01-26T03:50:38.764Z,20.47
2019-01-26T03:51:38.714Z,20.85
2019-01-26T03:52:38.665Z,20.85
2019-01-26T03:53:38.618Z,20.65
2019-01-26T03:54:38.614Z,20.65
2019-01-26T03:55:38.514Z,20.94
2019-01-26T03:56:38.465Z,20.85
2019-01-26T03:57:38.414Z,20.56
2019-01-26T03:58:38.364Z,20.56
2019-01-26T03:59:38.318Z,20.85
2019-01-26T04:00:38.263Z,20.56
2019-01-26T04:01:38.214Z,20.56
2019-01-26T04:02:38.163Z,20.75
2019-01-26T04:03:38.113Z,20.85
2019-01-26T04:04:38.064Z,20.75
2019-01-26T04:05:38.015Z,20.37
2019-01-26T04:06:37.964Z,20.56
2019-01-26T04:07:37.913Z,20.37
2019-01-26T04:08:37.863Z,20.47
2019-01-26T04:09:37.814Z,20.75
2019-01-26T04:10:37.762Z,20.65
2019-01-26T04:11:37.718Z,20.85
2019-01-26T04:12:37.663Z,20.75
2019-01-26T04:13:37.613Z,20.85
2019-01-26T04:14:37.612Z,20.37
2019-01-26T04:15:37.511Z,20.75
2019-01-26T04:16:37.463Z,20.65
2019-01-26T04:17:37.414Z,20.47
2019-01-26T04:18:37.360Z,20.75
2019-01-26T04:19:37.311Z,20.56
2019-01-26T04:20:37.264Z,20.56
2019-01-26T04:21:37.216Z,20.27
2019-01-26T04:22:37.162Z,20.56
2019-01-26T04:23:37.116Z,20.47
2019-01-26T04:24:37.062Z,20.47
2019-01-26T04:25:37.012Z,20.56
2019-01-26T04:26:37.011Z,20.75
2019-01-26T04:27:36.912Z,20.75
2019-01-26T04:28:36.877Z,20.65
2019-01-26T04:29:36.810Z,20.75
2019-01-26T04:30:36.761Z,20.47
2019-01-26T04:31:36.711Z,20.65
2019-01-26T04:32:36.662Z,20.37
2019-01-26T04:33:36.610Z,20.65
2019-01-26T04:34:36.560Z,20.27
2019-01-26T04:35:36.560Z,20.47
2019-01-26T04:36:36.461Z,20.27
2019-01-26T04:37:36.412Z,20.56
2019-01-26T04:38:36.360Z,20.75
2019-01-26T04:39:36.310Z,20.56
2019-01-26T04:40:36.261Z,20.65
2019-01-26T04:41:36.210Z,20.56
2019-01-26T04:42:36.162Z,21.04
2019-01-26T04:43:36.110Z,20.65
2019-01-26T04:44:36.060Z,20.56
2019-01-26T04:45:36.010Z,20.75
2019-01-26T04:46:35.960Z,20.56
2019-01-26T04:47:35.909Z,20.47
2019-01-26T04:48:35.864Z,20.75
2019-01-26T04:49:35.813Z,20.75
2019-01-26T04:50:35.759Z,20.27
2019-01-26T04:51:35.715Z,20.27
2019-01-26T04:52:35.658Z,20.75
2019-01-26T04:53:35.612Z,20.37
2019-01-26T04:54:35.559Z,20.85
2019-01-26T04:55:35.510Z,20.47
2019-01-26T04:56:35.458Z,20.75
2019-01-26T04:57:35.412Z,20.65
2019-01-26T04:58:35.409Z,20.56
2019-01-26T04:59:35.310Z,20.94
2019-01-26T05:00:35.259Z,20.85
2019-01-26T05:01:35.211Z,20.75
2019-01-26T05:02:35.157Z,20.85
2019-01-26T05:03:35.208Z,21.04
2019-01-26T05:04:35.058Z,21.14
2019-01-26T05:05:35.008Z,20.75
2019-01-26T05:06:34.960Z,20.75
2019-01-26T05:07:34.907Z,21.23
2019-01-26T05:08:34.857Z,20.94
2019-01-26T05:09:34.807Z,21.23
2019-01-26T05:10:34.757Z,21.14
2019-01-26T05:11:34.713Z,21.23
2019-01-26T05:12:34.655Z,20.94
2019-01-26T05:13:34.606Z,20.94
2019-01-26T05:14:34.559Z,20.75
2019-01-26T05:15:34.507Z,21.04
2019-01-26T05:16:34.456Z,20.75
2019-01-26T05:17:39.200Z,20.94
2019-01-26T05:18:34.357Z,20.94
2019-01-26T05:19:34.305Z,20.75
2019-01-26T05:20:34.256Z,20.85
2019-01-26T05:21:34.206Z,20.94
2019-01-26T05:22:34.155Z,21.04
2019-01-26T05:23:34.105Z,21.04
2019-01-26T05:24:34.056Z,21.04
2019-01-26T05:25:34.006Z,20.94
2019-01-26T05:26:33.953Z,20.94
2019-01-26T05:27:33.908Z,20.94
2019-01-26T05:28:33.855Z,20.94
2019-01-26T05:29:33.805Z,20.94
2019-01-26T05:30:33.753Z,20.75
2019-01-26T05:31:33.704Z,20.75
2019-01-26T05:32:33.656Z,20.85
2019-01-26T05:33:33.609Z,20.85
2019-01-26T05:34:33.553Z,20.65
2019-01-26T05:35:33.503Z,20.75
2019-01-26T05:36:33.454Z,20.85
2019-01-26T05:37:33.404Z,20.75
2019-01-26T05:38:33.353Z,20.75
2019-01-26T05:39:33.302Z,20.85
2019-01-26T05:40:33.253Z,21.04
2019-01-26T05:41:33.205Z,20.85
2019-01-26T05:42:33.152Z,20.75
2019-01-26T05:43:33.102Z,20.85
2019-01-26T05:44:33.051Z,20.75
2019-01-26T05:45:33.003Z,20.85
2019-01-26T05:46:32.952Z,20.75
2019-01-26T05:47:32.903Z,20.75
2019-01-26T05:48:32.852Z,21.14
2019-01-26T05:49:32.802Z,20.75
2019-01-26T05:50:32.751Z,21.04
2019-01-26T05:51:32.701Z,21.04
2019-01-26T05:52:32.651Z,21.23
2019-01-26T05:53:32.601Z,21.42
2019-01-26T05:54:32.600Z,21.12
2019-01-26T05:55:32.600Z,21.42
2019-01-26T05:56:32.451Z,21.04
2019-01-26T05:57:32.409Z,21.23
2019-01-26T05:58:32.350Z,21.42
2019-01-26T05:59:32.300Z,21.42
2019-01-26T06:00:32.254Z,21.04
2019-01-26T06:01:32.204Z,21.04
2019-01-26T06:02:32.150Z,21.04
2019-01-26T06:03:32.100Z,21.04
2019-01-26T06:04:32.050Z,21.52
2019-01-26T06:05:32.000Z,21.42
2019-01-26T06:06:31.952Z,21.42
2019-01-26T06:07:31.899Z,20.94
2019-01-26T06:08:31.849Z,21.04
2019-01-26T06:09:31.801Z,21.04
2019-01-26T06:10:31.749Z,20.94
2019-01-26T06:11:31.715Z,21.42
2019-01-26T06:12:31.656Z,21.04
2019-01-26T06:13:31.600Z,21.52
2019-01-26T06:14:31.548Z,21.52
2019-01-26T06:15:31.499Z,21.42
2019-01-26T06:16:31.447Z,20.94
2019-01-26T06:17:31.398Z,21.23
2019-01-26T06:18:31.350Z,21.42
2019-01-26T06:19:31.298Z,21.23
2019-01-26T06:20:31.251Z,20.94
2019-01-26T06:21:31.201Z,21.23
2019-01-26T06:22:31.147Z,21.14
2019-01-26T06:23:31.098Z,20.94
2019-01-26T06:24:31.048Z,21.22
2019-01-26T06:25:30.999Z,21.04
2019-01-26T06:26:30.948Z,21.04
2019-01-26T06:27:30.897Z,21.12
2019-01-26T06:28:30.847Z,21.04
2019-01-26T06:29:30.799Z,21.14
2019-01-26T06:30:30.748Z,21.14
2019-01-26T06:31:30.697Z,21.12
2019-01-26T06:32:30.647Z,21.04
2019-01-26T06:33:30.597Z,21.04
2019-01-26T06:34:30.596Z,21.14
2019-01-26T06:35:30.496Z,21.14
2019-01-26T06:36:30.448Z,21.12
2019-01-26T06:37:30.397Z,21.23
2019-01-26T06:38:30.346Z,21.12
2019-01-26T06:39:30.296Z,21.23
2019-01-26T06:40:30.249Z,21.32
2019-01-26T06:41:30.196Z,21.04
2019-01-26T06:42:30.146Z,20.94
2019-01-26T06:43:30.096Z,20.94
2019-01-26T06:44:30.045Z,21.12
2019-01-26T06:45:29.996Z,21.33
2019-01-26T06:46:29.944Z,21.04
2019-01-26T06:47:29.895Z,21.12
2019-01-26T06:48:29.845Z,21.04
2019-01-26T06:49:29.795Z,20.94
2019-01-26T06:50:29.743Z,21.03
2019-01-26T06:51:29.695Z,21.04
2019-01-26T06:52:29.645Z,20.94
2019-01-26T06:53:29.647Z,20.94
2019-01-26T06:54:29.594Z,21.03
2019-01-26T06:55:29.494Z,20.94
2019-01-26T06:56:29.444Z,21.04
2019-01-26T06:57:29.394Z,20.85
2019-01-26T06:58:29.344Z,21.03
2019-01-26T06:59:29.304Z,21.04
2019-01-26T07:00:29.246Z,21.04
2019-01-26T07:01:29.193Z,20.85
2019-01-26T07:02:29.461Z,21.04
2019-01-26T07:03:29.092Z,20.94
2019-01-26T07:04:29.044Z,21.03
2019-01-26T07:05:28.994Z,20.94
2019-01-26T07:06:28.943Z,21.14
2019-01-26T07:07:28.899Z,21.22
2019-01-26T07:08:28.844Z,21.04
2019-01-26T07:09:28.794Z,21.04
2019-01-26T07:10:28.742Z,21.04
2019-01-26T07:11:28.695Z,21.22
2019-01-26T07:12:28.641Z,21.14
2019-01-26T07:13:28.593Z,21.04
2019-01-26T07:14:28.545Z,21.14
2019-01-26T07:15:28.492Z,21.14
2019-01-26T07:16:28.443Z,21.04
2019-01-26T07:17:28.393Z,21.23
2019-01-26T07:18:28.341Z,21.14
2019-01-26T07:19:28.293Z,21.03
2019-01-26T07:20:28.242Z,21.04
2019-01-26T07:21:28.196Z,21.42
2019-01-26T07:22:28.142Z,21.41
2019-01-26T07:23:28.092Z,21.14
2019-01-26T07:24:28.042Z,21.33
2019-01-26T07:25:27.993Z,21.33
2019-01-26T07:26:27.941Z,21.42
2019-01-26T07:27:27.892Z,21.33
2019-01-26T07:28:27.842Z,21.14
2019-01-26T07:29:27.791Z,21.14
2019-01-26T07:30:27.741Z,21.33
2019-01-26T07:31:27.691Z,21.23
2019-01-26T07:32:27.649Z,21.42
2019-01-26T07:33:27.591Z,21.23
2019-01-26T07:34:27.591Z,21.33
2019-01-26T07:35:27.491Z,21.33
2019-01-26T07:36:27.441Z,21.23
2019-01-26T07:37:27.391Z,21.32
2019-01-26T07:38:27.340Z,21.23
2019-01-26T07:39:27.290Z,21.33
2019-01-26T07:40:27.239Z,21.23
2019-01-26T07:41:27.192Z,21.23
2019-01-26T07:42:27.142Z,21.33
2019-01-26T07:43:27.090Z,21.23
2019-01-26T07:44:27.040Z,21.32
2019-01-26T07:45:26.990Z,21.22
2019-01-26T07:46:26.939Z,21.61
2019-01-26T07:47:26.890Z,21.71
2019-01-26T07:48:26.840Z,21.42
2019-01-26T07:49:26.790Z,21.32
2019-01-26T07:50:26.741Z,21.70
2019-01-26T07:51:26.690Z,21.81
2019-01-26T07:52:26.639Z,21.70
2019-01-26T07:53:26.590Z,21.81
2019-01-26T07:54:26.538Z,21.61
2019-01-26T07:55:26.490Z,21.70
2019-01-26T07:56:26.440Z,21.71
2019-01-26T07:57:26.389Z,21.81
2019-01-26T07:58:26.338Z,21.89
2019-01-26T07:59:26.288Z,21.81
2019-01-26T08:00:26.241Z,21.52
2019-01-26T08:01:26.189Z,21.71
2019-01-26T08:02:26.138Z,21.91
2019-01-26T08:03:26.088Z,21.61
2019-01-26T08:04:26.038Z,21.52
2019-01-26T08:05:25.988Z,21.52
2019-01-26T08:06:25.938Z,21.51
2019-01-26T08:07:25.887Z,21.51
2019-01-26T08:08:25.840Z,21.71
2019-01-26T08:09:25.791Z,21.70
2019-01-26T08:10:25.737Z,21.61
2019-01-26T08:11:25.688Z,21.71
2019-01-26T08:12:25.638Z,21.71
2019-01-26T08:13:25.588Z,21.70
2019-01-26T08:14:25.538Z,21.41
2019-01-26T08:15:25.488Z,21.51
2019-01-26T08:16:25.437Z,21.71
2019-01-26T08:17:25.387Z,21.81
2019-01-26T08:18:25.338Z,21.71
2019-01-26T08:19:25.303Z,21.81
2019-01-26T08:20:25.236Z,21.42
2019-01-26T08:21:25.187Z,21.42
2019-01-26T08:22:25.135Z,21.41
2019-01-26T08:23:25.086Z,21.61
2019-01-26T08:24:25.037Z,21.51
2019-01-26T08:25:24.987Z,21.52
2019-01-26T08:26:24.935Z,21.61
2019-01-26T08:27:24.887Z,21.32
2019-01-26T08:28:24.835Z,21.71
2019-01-26T08:29:24.786Z,21.71
2019-01-26T08:30:24.737Z,21.61
2019-01-26T08:31:24.686Z,21.51
2019-01-26T08:32:24.637Z,21.52
2019-01-26T08:33:24.587Z,21.61
2019-01-26T08:34:24.535Z,21.61
2019-01-26T08:35:24.486Z,21.71
2019-01-26T08:36:24.436Z,21.33
2019-01-26T08:37:24.402Z,21.81
2019-01-26T08:38:24.337Z,21.22
2019-01-26T08:39:24.288Z,21.52
2019-01-26T08:40:24.236Z,21.42
2019-01-26T08:41:24.186Z,21.42
2019-01-26T08:42:24.135Z,21.42
2019-01-26T08:43:24.085Z,21.41
2019-01-26T08:44:24.036Z,21.51
2019-01-26T08:45:23.987Z,21.51
2019-01-26T08:46:23.935Z,21.99
2019-01-26T08:47:23.884Z,21.52
2019-01-26T08:48:23.834Z,22.00
2019-01-26T08:49:23.787Z,21.52
2019-01-26T08:50:23.735Z,21.61
2019-01-26T08:51:23.691Z,21.71
2019-01-26T08:52:23.635Z,21.33
2019-01-26T08:53:23.584Z,21.99
2019-01-26T08:54:23.534Z,21.52
2019-01-26T08:55:23.483Z,21.33
2019-01-26T08:56:23.436Z,22.00
2019-01-26T08:57:23.385Z,21.42
2019-01-26T08:58:23.334Z,22.19
2019-01-26T08:59:23.285Z,21.91
2019-01-26T09:00:23.236Z,22.09
2019-01-26T09:01:23.185Z,22.19
2019-01-26T09:02:25.499Z,21.61
2019-01-26T09:03:23.085Z,21.42
2019-01-26T09:04:23.038Z,21.91
2019-01-26T09:05:22.985Z,21.52
2019-01-26T09:06:22.934Z,22.09
2019-01-26T09:07:22.884Z,21.91
2019-01-26T09:08:22.834Z,21.91
2019-01-26T09:09:22.785Z,21.89
2019-01-26T09:10:22.733Z,21.91
2019-01-26T09:11:22.684Z,21.71
2019-01-26T09:12:22.635Z,21.81
2019-01-26T09:13:22.686Z,21.89
2019-01-26T09:14:22.534Z,21.91
2019-01-26T09:15:22.484Z,22.00
2019-01-26T09:16:22.434Z,21.91
2019-01-26T09:17:22.387Z,21.81
2019-01-26T09:18:22.337Z,21.61
2019-01-26T09:19:22.286Z,21.61
2019-01-26T09:20:22.235Z,21.70
2019-01-26T09:21:22.184Z,21.81
2019-01-26T09:22:22.133Z,21.89
2019-01-26T09:23:22.087Z,21.61
2019-01-26T09:24:22.035Z,21.81
2019-01-26T09:25:21.984Z,21.91
2019-01-26T09:26:21.935Z,21.61
2019-01-26T09:27:21.883Z,21.71
2019-01-26T09:28:21.834Z,22.19
2019-01-26T09:29:21.785Z,22.08
2019-01-26T09:30:21.733Z,22.09
2019-01-26T09:31:21.683Z,22.09
2019-01-26T09:32:21.634Z,21.81
2019-01-26T09:33:21.583Z,22.09
2019-01-26T09:34:21.533Z,22.19
2019-01-26T09:35:21.484Z,22.19
2019-01-26T09:36:21.434Z,22.08
2019-01-26T09:37:21.384Z,22.28
2019-01-26T09:38:21.336Z,21.91
2019-01-26T09:39:21.285Z,22.19
2019-01-26T09:40:21.233Z,22.09
2019-01-26T09:41:21.187Z,22.19
2019-01-26T09:42:21.133Z,21.91
2019-01-26T09:43:21.083Z,22.19
2019-01-26T09:44:21.033Z,21.99
2019-01-26T09:45:20.984Z,21.99
2019-01-26T09:46:20.975Z,21.89
2019-01-26T09:47:20.883Z,21.81
2019-01-26T09:48:20.833Z,21.99
2019-01-26T09:49:20.786Z,21.91
2019-01-26T09:50:20.733Z,22.38
2019-01-26T09:51:20.685Z,22.00
2019-01-26T09:52:20.633Z,22.19
2019-01-26T09:53:20.583Z,21.91
2019-01-26T09:54:20.533Z,22.38
2019-01-26T09:55:20.483Z,22.38
2019-01-26T09:56:20.433Z,22.38
2019-01-26T09:57:20.383Z,22.28
2019-01-26T09:58:20.331Z,22.08
2019-01-26T09:59:20.284Z,22.09
2019-01-26T10:00:20.235Z,22.08
2019-01-26T10:01:20.185Z,22.08
2019-01-26T10:02:20.131Z,22.08
2019-01-26T10:03:20.084Z,22.09
2019-01-26T10:04:20.033Z,22.00
2019-01-26T10:05:19.983Z,22.08
2019-01-26T10:06:19.932Z,22.08
2019-01-26T10:07:19.886Z,22.00
2019-01-26T10:08:19.833Z,22.08
2019-01-26T10:09:19.784Z,22.18
2019-01-26T10:10:19.731Z,22.00
2019-01-26T10:11:19.683Z,21.99
2019-01-26T10:12:19.670Z,21.91
2019-01-26T10:13:19.635Z,22.00
2019-01-26T10:14:19.532Z,22.09
2019-01-26T10:15:19.482Z,22.19
2019-01-26T10:16:20.142Z,22.29
2019-01-26T10:17:19.386Z,21.91
2019-01-26T10:18:19.332Z,22.18
2019-01-26T10:19:19.283Z,22.00
2019-01-26T10:20:19.234Z,22.00
2019-01-26T10:21:19.183Z,22.08
2019-01-26T10:22:19.132Z,21.99
2019-01-26T10:23:19.082Z,21.99
2019-01-26T10:24:19.033Z,22.08
2019-01-26T10:25:18.983Z,22.18
2019-01-26T10:26:18.930Z,22.08
2019-01-26T10:27:18.882Z,22.09
2019-01-26T10:28:18.838Z,22.19
2019-01-26T10:29:18.781Z,22.18
2019-01-26T10:30:18.731Z,21.91
2019-01-26T10:31:18.682Z,21.99
2019-01-26T10:32:18.632Z,21.99
2019-01-26T10:33:18.582Z,22.00
2019-01-26T10:34:18.581Z,22.00
2019-01-26T10:35:18.482Z,21.99
2019-01-26T10:36:18.432Z,22.00
2019-01-26T10:37:18.382Z,21.91
2019-01-26T10:38:18.331Z,22.08
2019-01-26T10:39:18.281Z,22.00
2019-01-26T10:40:18.232Z,22.00
2019-01-26T10:41:18.182Z,22.19
2019-01-26T10:42:18.132Z,22.00
2019-01-26T10:43:18.081Z,22.18
2019-01-26T10:44:18.031Z,21.91
2019-01-26T10:45:17.982Z,22.00
2019-01-26T10:46:17.932Z,22.00
2019-01-26T10:47:17.881Z,22.00
2019-01-26T10:48:17.832Z,22.09
2019-01-26T10:49:17.783Z,22.19
2019-01-26T10:50:17.730Z,21.81
2019-01-26T10:51:17.681Z,21.81
2019-01-26T10:52:17.632Z,22.09
2019-01-26T10:53:17.581Z,22.09
2019-01-26T10:54:17.531Z,22.28
2019-01-26T10:55:17.480Z,22.19
2019-01-26T10:56:17.432Z,21.81
2019-01-26T10:57:17.383Z,22.09
2019-01-26T10:58:17.331Z,22.09
2019-01-26T10:59:17.281Z,22.08
2019-01-26T11:00:17.232Z,22.09
2019-01-26T11:01:17.184Z,22.29
2019-01-26T11:02:17.131Z,21.89
2019-01-26T11:03:17.082Z,21.81
2019-01-26T11:04:17.032Z,22.08
2019-01-26T11:05:16.982Z,22.09
2019-01-26T11:06:16.931Z,22.29
2019-01-26T11:07:16.881Z,22.08
2019-01-26T11:08:16.830Z,22.09
2019-01-26T11:09:16.782Z,22.19
2019-01-26T11:10:16.731Z,22.09
2019-01-26T11:11:16.682Z,22.09
2019-01-26T11:12:16.631Z,22.19
2019-01-26T11:13:16.582Z,22.19
2019-01-26T11:14:16.582Z,22.09
2019-01-26T11:15:16.482Z,22.09
2019-01-26T11:16:16.432Z,22.19
2019-01-26T11:17:16.386Z,22.19
2019-01-26T11:18:16.333Z,22.00
2019-01-26T11:19:16.282Z,22.48
2019-01-26T11:20:16.232Z,22.56
2019-01-26T11:21:16.183Z,22.00
2019-01-26T11:22:16.132Z,22.29
2019-01-26T11:23:16.082Z,22.38
2019-01-26T11:24:16.033Z,22.38
2019-01-26T11:25:15.983Z,22.18
2019-01-26T11:26:15.931Z,22.29
2019-01-26T11:27:15.883Z,22.29
2019-01-26T11:28:15.833Z,22.48
2019-01-26T11:29:15.783Z,22.29
2019-01-26T11:30:15.733Z,22.38
2019-01-26T11:31:15.684Z,22.19
2019-01-26T11:32:15.633Z,22.38
2019-01-26T11:33:15.634Z,22.38
2019-01-26T11:34:15.539Z,22.29
2019-01-26T11:35:15.484Z,22.29
2019-01-26T11:36:15.434Z,22.38
2019-01-26T11:37:15.387Z,22.29
2019-01-26T11:38:15.342Z,22.86
2019-01-26T11:39:15.284Z,22.18
2019-01-26T11:40:15.234Z,22.86
2019-01-26T11:41:15.185Z,22.19
2019-01-26T11:42:15.134Z,22.86
2019-01-26T11:43:15.083Z,22.86
2019-01-26T11:44:15.033Z,22.38
2019-01-26T11:45:14.985Z,22.77
2019-01-26T11:46:14.934Z,22.58
2019-01-26T11:47:14.885Z,22.77
2019-01-26T11:48:14.835Z,22.77
2019-01-26T11:49:15.297Z,22.67
2019-01-26T11:50:16.291Z,22.48
2019-01-26T11:51:14.685Z,22.58
2019-01-26T11:52:14.634Z,22.67
2019-01-26T11:53:14.636Z,22.67
2019-01-26T11:54:14.588Z,22.48
2019-01-26T11:55:14.488Z,22.48
2019-01-26T11:56:14.437Z,22.47
2019-01-26T11:57:14.392Z,22.48
2019-01-26T11:58:14.335Z,22.48
2019-01-26T11:59:14.284Z,22.38
2019-01-26T12:00:14.237Z,22.38
2019-01-26T12:01:14.186Z,22.38
2019-01-26T12:02:14.137Z,22.56
2019-01-26T12:03:14.086Z,22.48
2019-01-26T12:04:14.039Z,22.67
2019-01-26T12:05:13.986Z,22.48
2019-01-26T12:06:13.935Z,22.58
2019-01-26T12:07:13.889Z,22.48
2019-01-26T12:08:13.836Z,22.58
2019-01-26T12:09:13.788Z,22.48
2019-01-26T12:10:13.736Z,22.67
2019-01-26T12:11:13.690Z,22.58
2019-01-26T12:12:13.637Z,22.48
2019-01-26T12:13:13.587Z,22.48
2019-01-26T12:14:13.537Z,22.28
2019-01-26T12:15:13.487Z,22.48
2019-01-26T12:16:13.438Z,22.67
2019-01-26T12:17:13.388Z,22.28
2019-01-26T12:18:13.337Z,22.48
2019-01-26T12:19:13.287Z,22.48
2019-01-26T12:20:13.238Z,22.48
2019-01-26T12:21:13.188Z,22.67
2019-01-26T12:22:13.139Z,22.29
2019-01-26T12:23:13.088Z,22.29
2019-01-26T12:24:13.039Z,22.67
2019-01-26T12:25:12.989Z,22.58
2019-01-26T12:26:12.938Z,22.29
2019-01-26T12:27:12.888Z,22.29
2019-01-26T12:28:12.839Z,22.29
2019-01-26T12:29:12.789Z,22.29
2019-01-26T12:30:12.739Z,22.29
2019-01-26T12:31:12.689Z,22.29
2019-01-26T12:32:12.640Z,22.58
2019-01-26T12:33:12.590Z,22.48
2019-01-26T12:34:12.539Z,22.48
2019-01-26T12:35:12.489Z,22.09
2019-01-26T12:36:12.439Z,22.09
2019-01-26T12:37:12.390Z,22.19
2019-01-26T12:38:12.340Z,22.29
2019-01-26T12:39:12.290Z,22.58
2019-01-26T12:40:12.243Z,22.38
2019-01-26T12:41:12.191Z,22.29
2019-01-26T12:42:12.142Z,22.19
2019-01-26T12:43:12.097Z,22.48
2019-01-26T12:44:12.042Z,22.19
2019-01-26T12:45:11.994Z,22.29
2019-01-26T12:46:11.941Z,22.29
2019-01-26T12:47:16.911Z,22.48
2019-01-26T12:48:11.842Z,22.29
2019-01-26T12:49:11.791Z,22.86
2019-01-26T12:50:11.741Z,22.19
2019-01-26T12:51:11.691Z,22.08
2019-01-26T12:52:11.642Z,22.77